createdAt,value
2023-01-06T00:00:30.635Z,99.99
2023-01-06T00:01:30.577Z,99.99
2023-01-06T00:02:30.611Z,99.95
2023-01-06T00:03:30.627Z,99.99
2023-01-06T00:04:30.563Z,99.99
2023-01-06T00:05:30.505Z,99.99
2023-01-06T00:06:30.519Z,99.99
2023-01-06T00:07:30.483Z,99.99
2023-01-06T00:08:30.467Z,99.99
2023-01-06T00:09:30.476Z,99.74
2023-01-06T00:10:30.472Z,99.99
2023-01-06T00:11:30.487Z,99.99
2023-01-06T00:12:30.436Z,99.99
2023-01-06T00:13:30.431Z,99.59
2023-01-06T00:14:30.408Z,99.49
2023-01-06T00:15:30.463Z,99.79
2023-01-06T00:16:30.413Z,99.99
2023-01-06T00:17:30.399Z,99.90
2023-01-06T00:18:30.374Z,99.69
2023-01-06T00:19:30.447Z,99.63
2023-01-06T00:20:30.346Z,99.95
2023-01-06T00:21:30.351Z,99.99
2023-01-06T00:22:30.349Z,99.63
2023-01-06T00:23:30.365Z,99.99
2023-01-06T00:24:30.328Z,99.69
2023-01-06T00:25:30.299Z,99.63
2023-01-06T00:26:30.324Z,99.59
2023-01-06T00:27:30.313Z,99.49
2023-01-06T00:28:30.240Z,99.95
2023-01-06T00:29:30.276Z,99.99
2023-01-06T00:30:30.256Z,99.99
2023-01-06T00:31:30.335Z,99.90
2023-01-06T00:32:30.225Z,99.95
2023-01-06T00:33:30.205Z,99.99
2023-01-06T00:34:30.224Z,99.74
2023-01-06T00:35:30.269Z,99.99
2023-01-06T00:36:30.208Z,99.38
2023-01-06T00:37:30.169Z,99.49
2023-01-06T00:38:30.179Z,99.99
2023-01-06T00:39:30.138Z,99.43
2023-01-06T00:40:30.143Z,99.54
2023-01-06T00:41:30.109Z,99.79
2023-01-06T00:42:30.127Z,99.99
2023-01-06T00:43:30.104Z,99.69
2023-01-06T00:44:30.159Z,99.90
2023-01-06T00:45:30.116Z,99.95
2023-01-06T00:46:30.184Z,99.84
2023-01-06T00:47:30.082Z,99.49
2023-01-06T00:48:30.075Z,99.43
2023-01-06T00:49:30.058Z,99.63
2023-01-06T00:50:30.043Z,99.69
2023-01-06T00:51:30.141Z,99.99
2023-01-06T00:52:30.013Z,99.69
2023-01-06T00:53:30.000Z,99.49
2023-01-06T00:54:30.011Z,99.49
2023-01-06T00:55:29.997Z,99.99
2023-01-06T00:56:30.034Z,99.90
2023-01-06T00:57:29.964Z,99.38
2023-01-06T00:58:29.965Z,98.97
2023-01-06T00:59:29.965Z,98.57
2023-01-06T01:00:29.942Z,98.97
2023-01-06T01:01:29.998Z,98.67
2023-01-06T01:02:29.988Z,99.18
2023-01-06T01:03:29.923Z,98.67
2023-01-06T01:04:29.889Z,98.46
2023-01-06T01:05:29.900Z,99.18
2023-01-06T01:06:29.913Z,99.34
2023-01-06T01:07:29.868Z,99.38
2023-01-06T01:08:29.841Z,98.87
2023-01-06T01:09:29.869Z,98.72
2023-01-06T01:10:29.853Z,98.52
2023-01-06T01:11:29.830Z,98.72
2023-01-06T01:12:29.820Z,98.87
2023-01-06T01:13:29.787Z,99.03
2023-01-06T01:14:29.829Z,99.99
2023-01-06T01:15:29.842Z,99.99
2023-01-06T01:16:29.781Z,99.69
2023-01-06T01:17:29.783Z,99.44
2023-01-06T01:18:29.724Z,99.75
2023-01-06T01:19:29.732Z,99.65
2023-01-06T01:20:29.753Z,99.90
2023-01-06T01:21:29.740Z,99.75
2023-01-06T01:22:29.710Z,99.99
2023-01-06T01:23:29.781Z,99.99
2023-01-06T01:24:29.673Z,99.99
2023-01-06T01:25:29.680Z,99.99
2023-01-06T01:26:29.655Z,99.99
2023-01-06T01:27:29.683Z,99.85
2023-01-06T01:28:29.605Z,99.44
2023-01-06T01:29:29.640Z,99.75
2023-01-06T01:30:29.608Z,99.65
2023-01-06T01:31:29.700Z,99.24
2023-01-06T01:32:29.634Z,99.99
2023-01-06T01:33:29.582Z,99.75
2023-01-06T01:34:29.586Z,99.85
2023-01-06T01:35:29.552Z,99.44
2023-01-06T01:36:29.545Z,99.24
2023-01-06T01:37:29.573Z,99.54
2023-01-06T01:38:29.518Z,98.93
2023-01-06T01:39:29.591Z,98.83
2023-01-06T01:40:29.528Z,99.03
2023-01-06T01:41:29.509Z,98.83
2023-01-06T01:42:29.507Z,99.38
2023-01-06T01:43:29.516Z,99.13
2023-01-06T01:44:29.494Z,99.24
2023-01-06T01:45:29.469Z,98.83
2023-01-06T01:46:29.499Z,98.93
2023-01-06T01:47:29.467Z,99.34
2023-01-06T01:48:29.381Z,99.24
2023-01-06T01:49:30.424Z,98.72
2023-01-06T01:50:29.438Z,99.34
2023-01-06T01:51:29.405Z,99.65
2023-01-06T01:52:29.412Z,99.79
2023-01-06T01:53:29.389Z,99.54
2023-01-06T01:54:29.361Z,99.79
2023-01-06T01:55:29.433Z,99.99
2023-01-06T01:56:29.332Z,99.65
2023-01-06T01:57:29.377Z,99.95
2023-01-06T01:58:29.317Z,99.85
2023-01-06T01:59:29.328Z,99.65
2023-01-06T02:00:29.310Z,99.85
2023-01-06T02:01:29.415Z,99.75
2023-01-06T02:02:29.447Z,99.65
2023-01-06T02:03:29.290Z,99.85
2023-01-06T02:04:29.262Z,99.65
2023-01-06T02:05:29.265Z,99.85
2023-01-06T02:06:29.224Z,99.95
2023-01-06T02:07:29.262Z,99.99
2023-01-06T02:08:29.239Z,99.99
2023-01-06T02:09:29.213Z,99.99
2023-01-06T02:10:29.207Z,99.99
2023-01-06T02:11:29.286Z,99.85
2023-01-06T02:12:29.238Z,99.24
2023-01-06T02:13:29.157Z,99.54
2023-01-06T02:14:29.173Z,99.54
2023-01-06T02:15:29.177Z,99.95
2023-01-06T02:16:29.152Z,99.99
2023-01-06T02:17:29.156Z,99.69
2023-01-06T02:18:29.132Z,99.99
2023-01-06T02:19:29.120Z,99.85
2023-01-06T02:20:29.145Z,99.95
2023-01-06T02:21:29.098Z,99.99
2023-01-06T02:22:29.102Z,99.99
2023-01-06T02:23:29.066Z,99.99
2023-01-06T02:24:29.085Z,99.91
2023-01-06T02:25:29.102Z,99.91
2023-01-06T02:26:29.058Z,99.65
2023-01-06T02:27:29.145Z,99.99
2023-01-06T02:28:29.033Z,99.80
2023-01-06T02:29:29.028Z,99.50
2023-01-06T02:30:29.008Z,99.19
2023-01-06T02:31:29.055Z,99.91
2023-01-06T02:32:28.993Z,99.54
2023-01-06T02:33:28.970Z,99.24
2023-01-06T02:34:28.967Z,99.65
2023-01-06T02:35:28.953Z,99.75
2023-01-06T02:36:28.952Z,99.99
2023-01-06T02:37:28.985Z,99.95
2023-01-06T02:38:28.920Z,99.70
2023-01-06T02:39:28.921Z,99.60
2023-01-06T02:40:28.908Z,99.99
2023-01-06T02:41:28.913Z,99.91
2023-01-06T02:42:28.939Z,99.54
2023-01-06T02:43:28.969Z,99.99
2023-01-06T02:44:28.880Z,99.99
2023-01-06T02:45:28.849Z,99.99
2023-01-06T02:46:28.923Z,99.99
2023-01-06T02:47:28.887Z,99.91
2023-01-06T02:48:28.835Z,99.75
2023-01-06T02:49:28.833Z,99.95
2023-01-06T02:50:28.822Z,99.85
2023-01-06T02:51:28.808Z,99.85
2023-01-06T02:52:28.819Z,99.99
2023-01-06T02:53:28.766Z,99.99
2023-01-06T02:54:28.754Z,99.99
2023-01-06T02:55:28.778Z,99.99
2023-01-06T02:56:28.781Z,99.99
2023-01-06T02:57:28.750Z,99.99
2023-01-06T02:58:28.756Z,99.99
2023-01-06T03:01:32.380Z,99.99
2023-01-06T03:02:13.080Z,99.99
2023-01-06T03:03:13.006Z,99.99
2023-01-06T03:04:13.051Z,99.99
2023-01-06T03:05:12.986Z,99.99
2023-01-06T03:06:12.970Z,99.99
2023-01-06T03:07:12.972Z,99.99
2023-01-06T03:08:12.955Z,99.99
2023-01-06T03:09:12.959Z,99.99
2023-01-06T03:10:12.927Z,99.99
2023-01-06T03:11:12.922Z,99.99
2023-01-06T03:12:12.920Z,99.99
2023-01-06T03:13:12.904Z,99.99
2023-01-06T03:14:12.883Z,99.99
2023-01-06T03:15:12.891Z,99.99
2023-01-06T03:16:12.946Z,99.96
2023-01-06T03:17:12.979Z,99.86
2023-01-06T03:18:12.844Z,99.66
2023-01-06T03:19:12.829Z,99.96
2023-01-06T03:20:12.827Z,99.99
2023-01-06T03:21:12.826Z,99.99
2023-01-06T03:22:12.824Z,99.99
2023-01-06T03:23:12.784Z,99.99
2023-01-06T03:24:12.780Z,99.99
2023-01-06T03:25:12.768Z,99.99
2023-01-06T03:26:12.758Z,99.99
2023-01-06T03:27:12.771Z,99.99
2023-01-06T03:28:12.738Z,99.99
2023-01-06T03:29:12.724Z,99.99
2023-01-06T03:30:12.718Z,99.86
2023-01-06T03:31:12.762Z,99.96
2023-01-06T03:32:12.729Z,99.76
2023-01-06T03:33:12.791Z,99.99
2023-01-06T03:34:12.670Z,99.86
2023-01-06T03:35:12.675Z,99.99
2023-01-06T03:36:12.649Z,99.96
2023-01-06T03:37:12.662Z,99.99
2023-01-06T03:38:12.664Z,99.99
2023-01-06T03:39:12.632Z,99.51
2023-01-06T03:40:12.609Z,99.41
2023-01-06T03:41:12.631Z,99.71
2023-01-06T03:42:24.514Z,99.91
2023-01-06T03:43:13.600Z,99.20
2023-01-06T03:44:12.584Z,99.71
2023-01-06T03:45:12.566Z,99.91
2023-01-06T03:46:12.550Z,99.20
2023-01-06T03:47:12.572Z,98.90
2023-01-06T03:48:12.526Z,98.79
2023-01-06T03:49:12.627Z,98.74
2023-01-06T03:50:12.515Z,98.58
2023-01-06T03:51:12.509Z,98.65
2023-01-06T03:52:13.652Z,98.24
2023-01-06T03:53:13.633Z,98.13
2023-01-06T03:54:13.676Z,98.54
2023-01-06T03:55:13.626Z,98.18
2023-01-06T03:56:13.594Z,98.07
2023-01-06T03:57:13.601Z,98.13
2023-01-06T03:58:13.609Z,98.13
2023-01-06T03:59:13.569Z,98.24
2023-01-06T04:00:13.544Z,98.44
2023-01-06T04:01:13.698Z,98.58
2023-01-06T04:02:13.552Z,98.03
2023-01-06T04:03:13.538Z,98.03
2023-01-06T04:04:13.522Z,98.24
2023-01-06T04:05:13.591Z,97.82
2023-01-06T04:06:13.493Z,97.82
2023-01-06T04:07:13.505Z,97.82
2023-01-06T04:08:13.491Z,98.24
2023-01-06T04:09:13.485Z,97.82
2023-01-06T04:10:13.455Z,98.07
2023-01-06T04:11:13.461Z,97.41
2023-01-06T04:12:13.444Z,98.03
2023-01-06T04:13:13.833Z,98.03
2023-01-06T04:14:13.424Z,98.28
2023-01-06T04:15:14.125Z,98.33
2023-01-06T04:16:13.442Z,98.24
2023-01-06T04:17:13.782Z,98.13
2023-01-06T04:18:14.381Z,98.44
2023-01-06T04:19:13.381Z,97.41
2023-01-06T04:20:13.344Z,98.24
2023-01-06T04:21:13.429Z,98.07
2023-01-06T04:22:13.329Z,98.18
2023-01-06T04:23:13.377Z,98.24
2023-01-06T04:24:13.284Z,98.13
2023-01-06T04:25:13.287Z,98.13
2023-01-06T04:26:13.286Z,98.13
2023-01-06T04:27:13.269Z,98.13
2023-01-06T04:28:13.267Z,98.58
2023-01-06T04:29:13.255Z,99.41
2023-01-06T04:30:13.226Z,99.10
2023-01-06T04:31:13.239Z,99.66
2023-01-06T04:32:13.218Z,99.87
2023-01-06T04:33:13.224Z,99.46
2023-01-06T04:34:13.192Z,99.51
2023-01-06T04:35:13.195Z,99.66
2023-01-06T04:36:13.202Z,99.71
2023-01-06T04:37:13.237Z,99.61
2023-01-06T04:38:13.172Z,99.91
2023-01-06T04:39:13.145Z,99.99
2023-01-06T04:40:13.137Z,99.51
2023-01-06T04:41:13.131Z,99.91
2023-01-06T04:42:13.118Z,99.91
2023-01-06T04:43:13.095Z,99.61
2023-01-06T04:44:13.120Z,99.71
2023-01-06T04:45:13.084Z,99.51
2023-01-06T04:46:13.082Z,99.61
2023-01-06T04:47:13.051Z,99.82
2023-01-06T04:48:13.093Z,99.71
2023-01-06T04:49:13.032Z,99.71
2023-01-06T04:50:13.043Z,99.10
2023-01-06T04:51:13.018Z,99.61
2023-01-06T04:52:13.017Z,98.90
2023-01-06T04:53:13.114Z,98.38
2023-01-06T04:54:12.995Z,98.38
2023-01-06T04:55:12.979Z,98.28
2023-01-06T04:56:12.987Z,98.58
2023-01-06T04:57:13.006Z,98.18
2023-01-06T04:58:12.966Z,98.18
2023-01-06T04:59:12.944Z,98.24
2023-01-06T05:00:12.931Z,98.18
2023-01-06T05:01:13.037Z,97.36
2023-01-06T05:02:12.906Z,97.25
2023-01-06T05:03:12.908Z,96.80
2023-01-06T05:04:12.937Z,97.25
2023-01-06T05:05:12.872Z,97.36
2023-01-06T05:06:12.885Z,97.15
2023-01-06T05:07:12.851Z,96.84
2023-01-06T05:08:13.886Z,97.15
2023-01-06T05:09:12.918Z,96.95
2023-01-06T05:10:12.836Z,97.05
2023-01-06T05:11:12.808Z,97.56
2023-01-06T05:12:12.815Z,97.56
2023-01-06T05:13:12.800Z,96.84
2023-01-06T05:14:12.772Z,97.56
2023-01-06T05:15:12.798Z,97.15
2023-01-06T05:16:12.781Z,97.56
2023-01-06T05:17:12.764Z,97.15
2023-01-06T05:18:12.731Z,97.15
2023-01-06T05:19:12.735Z,97.36
2023-01-06T05:20:12.701Z,97.56
2023-01-06T05:21:12.690Z,97.46
2023-01-06T05:22:12.733Z,97.15
2023-01-06T05:23:12.693Z,97.36
2023-01-06T05:24:12.703Z,97.15
2023-01-06T05:25:12.762Z,97.15
2023-01-06T05:26:12.656Z,96.64
2023-01-06T05:27:12.653Z,97.05
2023-01-06T05:28:12.632Z,97.05
2023-01-06T05:29:12.631Z,96.95
2023-01-06T05:30:12.613Z,96.38
2023-01-06T05:31:12.627Z,97.15
2023-01-06T05:32:12.602Z,96.84
2023-01-06T05:33:12.567Z,96.33
2023-01-06T05:34:12.601Z,95.92
2023-01-06T05:35:12.550Z,96.03
2023-01-06T05:36:12.567Z,95.51
2023-01-06T05:37:12.567Z,95.41
2023-01-06T05:38:12.502Z,96.08
2023-01-06T05:39:12.523Z,95.41
2023-01-06T05:40:12.491Z,94.59
2023-01-06T05:41:12.635Z,94.90
2023-01-06T05:42:12.479Z,94.70
2023-01-06T05:43:12.531Z,94.90
2023-01-06T05:44:12.488Z,94.90
2023-01-06T05:45:12.459Z,94.80
2023-01-06T05:46:12.494Z,94.90
2023-01-06T05:47:12.432Z,94.90
2023-01-06T05:48:12.417Z,94.90
2023-01-06T05:49:12.448Z,95.00
2023-01-06T05:50:12.408Z,94.74
2023-01-06T05:51:12.371Z,95.51
2023-01-06T05:52:12.372Z,95.36
2023-01-06T05:53:12.399Z,95.36
2023-01-06T05:54:12.375Z,95.87
2023-01-06T05:55:12.344Z,96.07
2023-01-06T05:56:15.184Z,96.07
2023-01-06T05:57:12.570Z,95.87
2023-01-06T05:58:13.459Z,96.28
2023-01-06T05:59:12.851Z,95.97
2023-01-06T06:00:13.211Z,95.97
2023-01-06T06:01:12.427Z,96.17
2023-01-06T06:02:12.466Z,96.17
2023-01-06T06:03:12.488Z,96.17
2023-01-06T06:04:12.303Z,94.68
2023-01-06T06:05:12.281Z,95.15
2023-01-06T06:06:12.274Z,94.54
2023-01-06T06:07:12.389Z,93.30
2023-01-06T06:08:12.272Z,92.90
2023-01-06T06:09:12.270Z,93.06
2023-01-06T06:10:12.240Z,93.30
2023-01-06T06:11:12.237Z,93.10
2023-01-06T06:12:12.232Z,92.59
2023-01-06T06:13:12.337Z,92.38
2023-01-06T06:14:12.212Z,92.49
2023-01-06T06:15:12.192Z,91.97
2023-01-06T06:16:12.210Z,92.90
2023-01-06T06:17:12.176Z,93.20
2023-01-06T06:18:12.177Z,92.79
2023-01-06T06:19:12.170Z,92.38
2023-01-06T06:20:12.173Z,92.18
2023-01-06T06:21:12.219Z,92.49
2023-01-06T06:22:12.281Z,92.69
2023-01-06T06:23:12.087Z,92.59
2023-01-06T06:24:12.148Z,91.87
2023-01-06T06:25:12.050Z,92.63
2023-01-06T06:26:12.072Z,92.59
2023-01-06T06:27:12.061Z,93.10
2023-01-06T06:28:12.030Z,91.77
2023-01-06T06:29:12.113Z,92.22
2023-01-06T06:30:12.089Z,92.43
2023-01-06T06:31:12.081Z,93.20
2023-01-06T06:32:12.074Z,92.59
2023-01-06T06:33:12.028Z,92.79
2023-01-06T06:34:12.008Z,91.87
2023-01-06T06:35:11.952Z,92.08
2023-01-06T06:36:12.069Z,93.15
2023-01-06T06:37:12.657Z,92.79
2023-01-06T06:38:12.978Z,93.00
2023-01-06T06:39:12.005Z,92.74
2023-01-06T06:40:11.875Z,92.94
2023-01-06T06:41:11.918Z,92.12
2023-01-06T06:42:12.056Z,92.83
2023-01-06T06:43:13.010Z,92.63
2023-01-06T06:44:12.072Z,92.83
2023-01-06T06:45:12.094Z,92.79
2023-01-06T06:46:12.061Z,91.77
2023-01-06T06:47:11.925Z,91.71
2023-01-06T06:48:11.837Z,92.74
2023-01-06T06:49:11.834Z,91.91
2023-01-06T06:50:11.807Z,91.91
2023-01-06T06:51:11.839Z,91.20
2023-01-06T06:52:11.855Z,91.30
2023-01-06T06:53:11.816Z,91.61
2023-01-06T06:54:11.865Z,91.71
2023-01-06T06:55:11.831Z,90.99
2023-01-06T06:56:11.819Z,91.20
2023-01-06T06:57:11.776Z,91.82
2023-01-06T06:58:11.781Z,91.40
2023-01-06T06:59:11.762Z,91.40
2023-01-06T07:00:11.839Z,91.91
2023-01-06T07:01:11.903Z,90.89
2023-01-06T07:02:11.822Z,91.65
2023-01-06T07:03:12.391Z,91.82
2023-01-06T07:04:11.725Z,91.91
2023-01-06T07:05:11.730Z,92.74
2023-01-06T07:06:11.706Z,92.22
2023-01-06T07:07:11.689Z,91.40
2023-01-06T07:08:11.621Z,90.79
2023-01-06T07:09:11.663Z,90.93
2023-01-06T07:10:11.662Z,91.82
2023-01-06T07:11:11.629Z,92.16
2023-01-06T07:12:11.659Z,91.75
2023-01-06T07:13:11.562Z,92.16
2023-01-06T07:14:11.590Z,91.86
2023-01-06T07:15:11.528Z,92.06
2023-01-06T07:16:11.623Z,92.78
2023-01-06T07:17:11.676Z,92.68
2023-01-06T07:18:11.543Z,91.75
2023-01-06T07:19:11.516Z,91.96
2023-01-06T07:20:11.522Z,92.16
2023-01-06T07:21:11.481Z,92.57
2023-01-06T07:22:11.445Z,91.44
2023-01-06T07:23:11.463Z,91.35
2023-01-06T07:24:11.462Z,91.86
2023-01-06T07:25:11.421Z,91.86
2023-01-06T07:26:11.381Z,91.55
2023-01-06T07:27:11.480Z,91.86
2023-01-06T07:28:11.499Z,91.65
2023-01-06T07:29:11.644Z,91.65
2023-01-06T07:30:11.379Z,90.93
2023-01-06T07:31:11.536Z,90.11
2023-01-06T07:32:11.392Z,90.52
2023-01-06T07:33:11.462Z,91.03
2023-01-06T07:34:11.369Z,90.62
2023-01-06T07:35:12.340Z,90.79
2023-01-06T07:36:11.338Z,90.52
2023-01-06T07:37:11.369Z,91.03
2023-01-06T07:38:11.343Z,90.73
2023-01-06T07:39:11.394Z,90.42
2023-01-06T07:40:11.304Z,90.73
2023-01-06T07:41:12.366Z,90.62
2023-01-06T07:42:11.265Z,91.30
2023-01-06T07:43:11.321Z,88.78
2023-01-06T07:44:11.300Z,89.19
2023-01-06T07:45:11.307Z,90.11
2023-01-06T07:46:11.321Z,90.37
2023-01-06T07:47:11.277Z,90.48
2023-01-06T07:48:11.251Z,90.62
2023-01-06T07:49:11.312Z,89.87
2023-01-06T07:50:11.235Z,90.73
2023-01-06T07:51:11.205Z,90.48
2023-01-06T07:52:11.190Z,89.66
2023-01-06T07:53:11.276Z,89.76
2023-01-06T07:54:11.201Z,89.56
2023-01-06T07:55:13.056Z,89.66
2023-01-06T07:56:11.216Z,89.56
2023-01-06T07:57:11.123Z,89.45
2023-01-06T07:58:11.124Z,90.37
2023-01-06T07:59:11.084Z,88.74
2023-01-06T08:00:11.132Z,88.53
2023-01-06T08:01:11.129Z,88.64
2023-01-06T08:02:11.313Z,88.94
2023-01-06T08:03:11.202Z,88.84
2023-01-06T08:04:11.102Z,89.04
2023-01-06T08:05:11.231Z,89.56
2023-01-06T08:06:11.033Z,88.84
2023-01-06T08:07:11.024Z,88.84
2023-01-06T08:08:11.097Z,88.64
2023-01-06T08:09:11.010Z,89.04
2023-01-06T08:10:11.033Z,88.64
2023-01-06T08:11:11.014Z,88.84
2023-01-06T08:12:10.951Z,88.94
2023-01-06T08:13:10.966Z,88.94
2023-01-06T08:14:10.987Z,89.04
2023-01-06T08:15:10.999Z,88.84
2023-01-06T08:16:10.966Z,87.61
2023-01-06T08:17:11.920Z,89.04
2023-01-06T08:18:10.946Z,87.61
2023-01-06T08:19:10.944Z,87.41
2023-01-06T08:20:10.934Z,87.92
2023-01-06T08:21:10.968Z,88.23
2023-01-06T08:22:10.911Z,88.70
2023-01-06T08:23:10.863Z,88.23
2023-01-06T08:24:10.846Z,88.23
2023-01-06T08:25:10.836Z,87.61
2023-01-06T08:26:10.901Z,88.12
2023-01-06T08:27:10.815Z,87.92
2023-01-06T08:28:10.803Z,87.41
2023-01-06T08:29:10.821Z,87.51
2023-01-06T08:30:10.847Z,87.26
2023-01-06T08:31:10.855Z,86.90
2023-01-06T08:32:11.179Z,87.06
2023-01-06T08:33:11.734Z,87.37
2023-01-06T08:34:10.839Z,86.58
2023-01-06T08:35:10.753Z,85.97
2023-01-06T08:36:10.699Z,87.06
2023-01-06T08:37:10.811Z,86.14
2023-01-06T08:38:10.785Z,85.63
2023-01-06T08:39:10.798Z,85.52
2023-01-06T08:40:10.751Z,85.22
2023-01-06T08:41:10.735Z,85.42
2023-01-06T08:42:10.775Z,85.83
2023-01-06T08:43:10.745Z,85.83
2023-01-06T08:44:10.704Z,84.39
2023-01-06T08:45:10.751Z,85.42
2023-01-06T08:46:10.730Z,85.22
2023-01-06T08:47:10.647Z,85.31
2023-01-06T08:48:10.654Z,85.83
2023-01-06T08:49:10.655Z,86.51
2023-01-06T08:50:10.638Z,86.04
2023-01-06T08:51:10.566Z,85.22
2023-01-06T08:52:10.611Z,85.22
2023-01-06T08:53:10.604Z,85.42
2023-01-06T08:54:10.649Z,85.22
2023-01-06T08:55:10.615Z,86.14
2023-01-06T08:56:10.548Z,85.63
2023-01-06T08:57:10.595Z,85.01
2023-01-06T08:58:10.554Z,85.01
2023-01-06T08:59:10.544Z,84.66
2023-01-06T09:00:10.556Z,85.17
2023-01-06T09:01:10.565Z,85.69
2023-01-06T09:02:10.745Z,85.69
2023-01-06T09:03:10.509Z,85.07
2023-01-06T09:04:10.447Z,85.38
2023-01-06T09:05:10.685Z,84.87
2023-01-06T09:06:10.467Z,85.07
2023-01-06T09:07:10.473Z,85.42
2023-01-06T09:08:10.447Z,85.48
2023-01-06T09:09:10.521Z,84.87
2023-01-06T09:10:10.422Z,84.46
2023-01-06T09:11:10.415Z,84.36
2023-01-06T09:12:10.494Z,84.15
2023-01-06T09:13:10.410Z,83.44
2023-01-06T09:14:10.397Z,84.36
2023-01-06T09:15:10.378Z,84.77
2023-01-06T09:16:10.383Z,85.38
2023-01-06T09:17:10.328Z,84.25
2023-01-06T09:18:10.349Z,85.38
2023-01-06T09:19:10.432Z,84.36
2023-01-06T09:20:10.328Z,84.25
2023-01-06T09:21:10.311Z,83.33
2023-01-06T09:22:10.372Z,83.74
2023-01-06T09:23:10.245Z,83.95
2023-01-06T09:24:11.276Z,83.95
2023-01-06T09:25:10.343Z,82.82
2023-01-06T09:26:10.317Z,82.51
2023-01-06T09:27:10.206Z,83.23
2023-01-06T09:28:10.178Z,82.92
2023-01-06T09:29:10.213Z,83.19
2023-01-06T09:30:10.195Z,84.11
2023-01-06T09:31:10.352Z,83.09
2023-01-06T09:32:10.266Z,82.48
2023-01-06T09:33:10.250Z,83.81
2023-01-06T09:34:10.134Z,81.35
2023-01-06T09:35:10.190Z,81.96
2023-01-06T09:36:10.132Z,82.27
2023-01-06T09:37:10.338Z,82.57
2023-01-06T09:38:10.469Z,83.81
2023-01-06T09:39:10.069Z,82.68
2023-01-06T09:40:10.166Z,83.91
2023-01-06T09:41:10.112Z,82.89
2023-01-06T09:42:10.030Z,82.57
2023-01-06T09:43:10.033Z,83.29
2023-01-06T09:44:10.146Z,83.15
2023-01-06T09:45:10.051Z,83.05
2023-01-06T09:46:10.094Z,84.22
2023-01-06T09:47:09.994Z,82.89
2023-01-06T09:48:11.056Z,83.09
2023-01-06T09:49:10.105Z,84.58
2023-01-06T09:50:10.042Z,84.01
2023-01-06T09:51:10.004Z,83.19
2023-01-06T09:52:09.943Z,84.31
2023-01-06T09:53:09.908Z,83.81
2023-01-06T09:54:09.918Z,84.01
2023-01-06T09:55:09.919Z,83.81
2023-01-06T09:56:09.923Z,83.09
2023-01-06T09:57:10.136Z,83.25
2023-01-06T09:58:09.884Z,84.48
2023-01-06T09:59:09.827Z,83.87
2023-01-06T10:00:09.905Z,83.76
2023-01-06T10:01:09.944Z,83.36
2023-01-06T10:02:09.978Z,83.29
2023-01-06T10:03:09.954Z,83.15
2023-01-06T10:04:09.891Z,83.56
2023-01-06T10:05:09.869Z,84.48
2023-01-06T10:06:09.973Z,83.87
2023-01-06T10:07:09.834Z,84.07
2023-01-06T10:08:09.805Z,83.56
2023-01-06T10:09:09.765Z,83.15
2023-01-06T10:10:09.760Z,83.76
2023-01-06T10:11:09.764Z,84.89
2023-01-06T10:12:09.750Z,84.99
2023-01-06T10:13:09.791Z,84.58
2023-01-06T10:14:09.787Z,84.07
2023-01-06T10:15:09.718Z,83.87
2023-01-06T10:16:09.804Z,83.36
2023-01-06T10:17:09.985Z,82.95
2023-01-06T10:18:09.724Z,83.76
2023-01-06T10:19:09.731Z,83.97
2023-01-06T10:20:09.707Z,84.63
2023-01-06T10:21:09.696Z,83.05
2023-01-06T10:22:09.839Z,83.76
2023-01-06T10:23:09.719Z,82.29
2023-01-06T10:24:09.690Z,82.56
2023-01-06T10:25:09.692Z,82.26
2023-01-06T10:26:09.679Z,81.95
2023-01-06T10:27:09.656Z,83.11
2023-01-06T10:28:10.417Z,83.11
2023-01-06T10:29:09.633Z,83.52
2023-01-06T10:30:09.580Z,83.97
2023-01-06T10:31:09.628Z,84.79
2023-01-06T10:32:09.557Z,84.07
2023-01-06T10:33:09.497Z,83.15
2023-01-06T10:34:09.506Z,83.56
2023-01-06T10:35:09.478Z,84.17
2023-01-06T10:36:09.560Z,83.36
2023-01-06T10:37:09.503Z,83.83
2023-01-06T10:38:09.448Z,84.75
2023-01-06T10:39:09.499Z,84.00
2023-01-06T10:40:09.515Z,82.97
2023-01-06T10:41:09.501Z,83.79
2023-01-06T10:42:09.396Z,81.71
2023-01-06T10:43:09.483Z,80.85
2023-01-06T10:44:09.431Z,79.79
2023-01-06T10:45:09.516Z,79.58
2023-01-06T10:46:09.476Z,77.91
2023-01-06T10:47:09.442Z,77.30
2023-01-06T10:48:09.364Z,76.28
2023-01-06T10:49:09.370Z,72.85
2023-01-06T10:50:09.330Z,74.31
2023-01-06T10:51:09.403Z,73.70
2023-01-06T10:52:09.325Z,72.68
2023-01-06T10:53:09.303Z,70.05
2023-01-06T10:54:09.300Z,67.42
2023-01-06T10:55:09.283Z,69.17
2023-01-06T10:56:09.315Z,68.12
2023-01-06T10:57:09.263Z,71.30
2023-01-06T10:58:09.246Z,72.14
2023-01-06T10:59:09.222Z,72.89
2023-01-06T11:00:10.251Z,73.30
2023-01-06T11:01:09.507Z,74.89
2023-01-06T11:02:09.419Z,74.76
2023-01-06T11:03:25.268Z,74.21
2023-01-06T11:04:11.232Z,75.57
2023-01-06T11:05:09.207Z,76.11
2023-01-06T11:06:09.226Z,76.49
2023-01-06T11:07:09.727Z,77.71
2023-01-06T11:08:09.191Z,77.48
2023-01-06T11:09:09.227Z,78.30
2023-01-06T11:10:09.269Z,79.66
2023-01-06T11:11:09.541Z,80.00
2023-01-06T11:12:09.097Z,81.63
2023-01-06T11:13:09.113Z,81.84
2023-01-06T11:14:09.113Z,80.10
2023-01-06T11:15:09.123Z,81.63
2023-01-06T11:16:09.160Z,80.71
2023-01-06T11:17:09.243Z,81.16
2023-01-06T11:18:09.130Z,81.84
2023-01-06T11:19:09.260Z,82.04
2023-01-06T11:20:09.173Z,82.75
2023-01-06T11:21:09.999Z,82.35
2023-01-06T11:22:10.684Z,80.61
2023-01-06T11:23:09.074Z,80.71
2023-01-06T11:24:09.055Z,81.84
2023-01-06T11:25:09.002Z,82.35
2023-01-06T11:26:08.985Z,81.37
2023-01-06T11:27:09.063Z,82.28
2023-01-06T11:28:09.211Z,83.00
2023-01-06T11:29:09.102Z,80.75
2023-01-06T11:30:09.185Z,81.77
2023-01-06T11:31:09.110Z,81.87
2023-01-06T11:32:09.052Z,82.63
2023-01-06T11:33:09.109Z,83.04
2023-01-06T11:34:08.916Z,83.44
2023-01-06T11:35:08.997Z,84.01
2023-01-06T11:36:08.986Z,82.39
2023-01-06T11:37:08.910Z,81.26
2023-01-06T11:38:08.910Z,82.28
2023-01-06T11:39:08.871Z,82.49
2023-01-06T11:40:11.580Z,81.16
2023-01-06T11:41:09.877Z,80.79
2023-01-06T11:42:08.897Z,82.01
2023-01-06T11:43:08.891Z,82.79
2023-01-06T11:44:08.796Z,82.49
2023-01-06T11:45:08.793Z,81.98
2023-01-06T11:46:08.830Z,82.39
2023-01-06T11:47:09.076Z,81.16
2023-01-06T11:48:09.568Z,80.34
2023-01-06T11:50:31.003Z,81.63
2023-01-06T11:51:09.552Z,81.02
2023-01-06T11:52:11.756Z,82.45
2023-01-06T11:53:08.843Z,80.82
2023-01-06T11:54:08.838Z,80.61
2023-01-06T11:55:08.890Z,80.61
2023-01-06T11:56:08.863Z,80.75
2023-01-06T11:57:09.580Z,80.65
2023-01-06T11:58:08.796Z,81.87
2023-01-06T11:59:08.738Z,81.87
2023-01-06T12:00:08.781Z,80.65
2023-01-06T12:01:08.745Z,81.05
2023-01-06T12:02:13.434Z,81.87
2023-01-06T12:03:09.017Z,81.87
2023-01-06T12:04:08.644Z,80.96
2023-01-06T12:05:08.713Z,81.05
2023-01-06T12:12:24.436Z,80.89
2023-01-06T12:13:24.988Z,82.42
2023-01-06T12:14:28.923Z,81.91
2023-01-06T12:15:53.133Z,82.05
2023-01-06T12:16:24.507Z,82.46
2023-01-06T12:17:24.622Z,82.15
2023-01-06T12:18:24.409Z,83.85
2023-01-06T12:19:24.446Z,82.36
2023-01-06T12:20:24.481Z,83.04
2023-01-06T12:21:24.362Z,82.42
2023-01-06T12:22:24.360Z,82.83
2023-01-06T12:23:24.386Z,82.01
2023-01-06T12:24:24.332Z,82.12
2023-01-06T12:25:24.320Z,82.46
2023-01-06T12:26:24.704Z,82.53
2023-01-06T12:27:24.292Z,82.22
2023-01-06T12:28:24.295Z,82.22
2023-01-06T12:29:24.286Z,82.22
2023-01-06T12:30:24.272Z,82.42
2023-01-06T12:31:24.251Z,82.53
2023-01-06T12:32:24.251Z,82.22
2023-01-06T12:33:24.212Z,82.73
2023-01-06T12:34:24.221Z,82.93
2023-01-06T12:35:24.192Z,82.63
2023-01-06T12:36:24.293Z,82.53
2023-01-06T12:37:24.209Z,81.91
2023-01-06T12:38:24.211Z,82.63
2023-01-06T12:39:24.152Z,82.63
2023-01-06T12:40:24.140Z,81.20
2023-01-06T12:41:24.161Z,80.99
2023-01-06T12:42:24.155Z,82.01
2023-01-06T12:43:24.129Z,82.12
2023-01-06T12:44:24.140Z,81.51
2023-01-06T12:45:24.092Z,82.01
2023-01-06T12:46:24.146Z,82.93
2023-01-06T12:47:24.224Z,83.04
2023-01-06T12:48:24.059Z,83.54
2023-01-06T12:49:24.118Z,83.44
2023-01-06T12:50:24.038Z,84.36
2023-01-06T12:51:24.037Z,85.18
2023-01-06T12:52:24.134Z,84.47
2023-01-06T12:53:24.009Z,83.44
2023-01-06T12:54:24.175Z,83.79
2023-01-06T12:55:24.693Z,83.28
2023-01-06T12:56:23.972Z,83.95
2023-01-06T12:57:23.979Z,84.00
2023-01-06T12:58:24.984Z,83.38
2023-01-06T12:59:23.935Z,84.30
2023-01-06T13:00:23.947Z,84.30
2023-01-06T13:01:25.642Z,83.69